createdAt,value
2022-10-08T00:00:20.125Z,2.60
2022-10-08T00:01:20.120Z,2.00
2022-10-08T00:02:20.162Z,2.50
2022-10-08T00:03:20.094Z,3.00
2022-10-08T00:04:20.089Z,2.50
2022-10-08T00:05:20.056Z,2.40
2022-10-08T00:06:20.045Z,2.30
2022-10-08T00:07:20.059Z,2.20
2022-10-08T00:08:20.050Z,2.30
2022-10-08T00:09:20.008Z,2.90
2022-10-08T00:10:19.993Z,2.00
2022-10-08T00:11:19.984Z,2.80
2022-10-08T00:12:19.988Z,2.50
2022-10-08T00:13:19.974Z,2.20
2022-10-08T00:14:26.517Z,1.80
2022-10-08T00:15:19.936Z,3.20
2022-10-08T00:16:19.989Z,3.00
2022-10-08T00:17:19.933Z,2.30
2022-10-08T00:18:19.932Z,2.60
2022-10-08T00:19:19.887Z,2.10
2022-10-08T00:20:19.890Z,2.50
2022-10-08T00:21:19.871Z,2.20
2022-10-08T00:22:19.877Z,2.60
2022-10-08T00:23:19.861Z,2.50
2022-10-08T00:24:19.839Z,1.90
2022-10-08T00:25:19.822Z,2.60
2022-10-08T00:26:19.815Z,3.20
2022-10-08T00:27:19.827Z,2.70
2022-10-08T00:28:19.868Z,2.30
2022-10-08T00:29:19.778Z,3.40
2022-10-08T00:30:19.795Z,2.10
2022-10-08T00:31:19.812Z,2.60
2022-10-08T00:32:19.750Z,2.40
2022-10-08T00:33:19.752Z,2.20
2022-10-08T00:34:19.725Z,1.90
2022-10-08T00:35:19.728Z,2.40
2022-10-08T00:36:19.731Z,2.50
2022-10-08T00:37:19.701Z,2.50
2022-10-08T00:38:19.703Z,2.70
2022-10-08T00:39:19.669Z,2.50
2022-10-08T00:40:19.681Z,3.00
2022-10-08T00:41:20.811Z,2.50
2022-10-08T00:42:19.638Z,2.00
2022-10-08T00:43:23.903Z,2.40
2022-10-08T00:44:19.624Z,2.50
2022-10-08T00:45:19.603Z,2.20
2022-10-08T00:46:19.603Z,2.20
2022-10-08T00:47:19.576Z,2.10
2022-10-08T00:48:19.609Z,2.60
2022-10-08T00:49:19.557Z,2.30
2022-10-08T00:50:19.589Z,2.40
2022-10-08T00:51:19.529Z,2.50
2022-10-08T00:52:19.524Z,2.10
2022-10-08T00:53:19.529Z,2.10
2022-10-08T00:54:19.564Z,3.10
2022-10-08T00:55:19.487Z,2.00
2022-10-08T00:56:19.489Z,2.80
2022-10-08T00:57:19.463Z,2.10
2022-10-08T00:58:19.492Z,2.20
2022-10-08T00:59:19.448Z,2.70
2022-10-08T01:00:19.442Z,3.00
2022-10-08T01:01:19.462Z,2.30
2022-10-08T01:02:19.593Z,2.10
2022-10-08T01:03:19.416Z,2.40
2022-10-08T01:04:19.388Z,2.60
2022-10-08T01:05:19.378Z,2.50
2022-10-08T01:06:19.378Z,2.00
2022-10-08T01:07:19.368Z,2.10
2022-10-08T01:08:19.371Z,2.40
2022-10-08T01:09:19.736Z,2.30
2022-10-08T01:10:19.335Z,3.10
2022-10-08T01:11:19.304Z,2.80
2022-10-08T01:12:19.318Z,2.70
2022-10-08T01:13:19.308Z,2.60
2022-10-08T01:14:19.282Z,2.80
2022-10-08T01:15:19.272Z,2.40
2022-10-08T01:16:19.294Z,2.20
2022-10-08T01:17:19.249Z,2.70
2022-10-08T01:18:19.256Z,2.40
2022-10-08T01:19:19.237Z,2.90
2022-10-08T01:20:19.214Z,2.50
2022-10-08T01:21:19.205Z,2.40
2022-10-08T01:22:19.190Z,2.20
2022-10-08T01:23:19.196Z,2.40
2022-10-08T01:24:19.168Z,2.10
2022-10-08T01:25:19.183Z,3.70
2022-10-08T01:26:19.154Z,2.60
2022-10-08T01:27:19.140Z,2.50
2022-10-08T01:28:19.206Z,2.70
2022-10-08T01:29:19.110Z,2.90
2022-10-08T01:30:19.120Z,1.80
2022-10-08T01:31:19.241Z,2.40
2022-10-08T01:32:19.085Z,2.40
2022-10-08T01:33:19.143Z,2.10
2022-10-08T01:34:19.078Z,2.60
2022-10-08T01:35:19.042Z,2.50
2022-10-08T01:36:19.039Z,2.60
2022-10-08T01:37:19.023Z,2.40
2022-10-08T01:38:19.037Z,2.40
2022-10-08T01:39:19.009Z,2.00
2022-10-08T01:40:18.991Z,2.40
2022-10-08T01:41:18.986Z,2.00
2022-10-08T01:42:18.977Z,2.40
2022-10-08T01:43:18.976Z,2.60
2022-10-08T01:44:18.959Z,2.30
2022-10-08T01:45:18.933Z,2.40
2022-10-08T01:46:19.010Z,2.40
2022-10-08T01:47:18.921Z,1.70
2022-10-08T01:48:18.935Z,2.50
2022-10-08T01:49:18.908Z,2.40
2022-10-08T01:50:18.888Z,2.30
2022-10-08T01:51:18.885Z,2.70
2022-10-08T01:52:18.877Z,2.90
2022-10-08T01:53:18.873Z,2.50
2022-10-08T01:54:18.839Z,2.50
2022-10-08T01:55:18.851Z,2.40
2022-10-08T01:56:18.816Z,2.70
2022-10-08T01:57:18.827Z,2.40
2022-10-08T01:58:18.838Z,2.20
2022-10-08T01:59:18.797Z,2.20
2022-10-08T02:00:18.775Z,2.60
2022-10-08T02:01:18.818Z,2.40
2022-10-08T02:02:18.823Z,1.90
2022-10-08T02:03:18.775Z,2.30
2022-10-08T02:04:18.743Z,2.40
2022-10-08T02:05:18.715Z,2.80
2022-10-08T02:06:18.717Z,2.50
2022-10-08T02:07:18.695Z,2.20
2022-10-08T02:08:18.715Z,2.70
2022-10-08T02:09:18.672Z,2.30
2022-10-08T02:10:18.667Z,2.30
2022-10-08T02:11:18.665Z,2.50
2022-10-08T02:12:18.671Z,3.10
2022-10-08T02:13:18.653Z,2.50
2022-10-08T02:14:18.619Z,2.40
2022-10-08T02:15:18.608Z,2.20
2022-10-08T02:16:18.639Z,2.10
2022-10-08T02:17:18.584Z,2.50
2022-10-08T02:18:18.602Z,2.40
2022-10-08T02:19:18.605Z,2.20
2022-10-08T02:20:18.560Z,2.40
2022-10-08T02:21:18.543Z,2.20
2022-10-08T02:22:18.542Z,2.40
2022-10-08T02:23:18.549Z,2.10
2022-10-08T02:24:18.514Z,2.30
2022-10-08T02:25:18.507Z,2.40
2022-10-08T02:26:18.488Z,2.50
2022-10-08T02:27:18.478Z,2.70
2022-10-08T02:28:18.528Z,2.50
2022-10-08T02:29:18.449Z,2.40
2022-10-08T02:30:18.459Z,1.80
2022-10-08T02:31:18.467Z,2.90
2022-10-08T02:32:18.427Z,2.80
2022-10-08T02:33:18.425Z,2.40
2022-10-08T02:34:18.414Z,2.90
2022-10-08T02:35:18.402Z,2.50
2022-10-08T02:36:18.390Z,2.30
2022-10-08T02:37:18.369Z,2.20
2022-10-08T02:38:18.365Z,2.60
2022-10-08T02:39:18.368Z,3.30
2022-10-08T02:40:18.343Z,3.00
2022-10-08T02:41:18.337Z,2.20
2022-10-08T02:42:18.341Z,2.90
2022-10-08T02:43:18.299Z,2.60
2022-10-08T02:44:18.310Z,2.50
2022-10-08T02:45:18.306Z,2.30
2022-10-08T02:46:18.301Z,2.60
2022-10-08T02:47:18.270Z,2.40
2022-10-08T02:48:18.250Z,3.10
2022-10-08T02:49:18.248Z,2.50
2022-10-08T02:50:18.227Z,2.70
2022-10-08T02:51:18.216Z,2.70
2022-10-08T02:52:18.205Z,2.70
2022-10-08T02:53:18.191Z,2.80
2022-10-08T02:54:18.230Z,2.80
2022-10-08T02:55:18.173Z,2.40
2022-10-08T02:56:18.184Z,2.50
2022-10-08T02:57:18.149Z,2.60
2022-10-08T02:58:18.140Z,2.00
2022-10-08T02:59:18.183Z,2.40
2022-10-08T03:00:18.129Z,2.70
2022-10-08T03:01:18.153Z,2.50
2022-10-08T03:02:18.137Z,2.30
2022-10-08T03:03:18.087Z,2.30
2022-10-08T03:04:18.110Z,2.60
2022-10-08T03:05:18.063Z,2.50
2022-10-08T03:06:18.070Z,2.80
2022-10-08T03:07:18.040Z,2.50
2022-10-08T03:08:18.025Z,3.00
2022-10-08T03:09:18.029Z,2.70
2022-10-08T03:10:18.041Z,2.50
2022-10-08T03:11:18.001Z,2.50
2022-10-08T03:12:17.986Z,2.60
2022-10-08T03:13:17.977Z,2.40
2022-10-08T03:14:18.006Z,2.50
2022-10-08T03:15:17.956Z,2.30
2022-10-08T03:16:18.011Z,2.30
2022-10-08T03:17:17.928Z,2.30
2022-10-08T03:18:17.910Z,2.50
2022-10-08T03:19:17.944Z,2.60
2022-10-08T03:20:17.894Z,2.10
2022-10-08T03:21:17.895Z,2.20
2022-10-08T03:22:17.878Z,2.60
2022-10-08T03:23:17.865Z,2.60
2022-10-08T03:24:17.870Z,2.50
2022-10-08T03:25:17.844Z,2.30
2022-10-08T03:26:17.828Z,2.20
2022-10-08T03:27:17.822Z,2.40
2022-10-08T03:28:17.950Z,3.50
2022-10-08T03:29:17.810Z,2.40
2022-10-08T03:30:17.787Z,2.80
2022-10-08T03:31:17.849Z,2.90
2022-10-08T03:32:17.817Z,2.70
2022-10-08T03:33:17.749Z,2.80
2022-10-08T03:34:17.776Z,2.30
2022-10-08T03:35:17.742Z,2.60
2022-10-08T03:36:17.717Z,1.90
2022-10-08T03:37:17.705Z,2.40
2022-10-08T03:38:17.722Z,2.40
2022-10-08T03:39:17.700Z,2.80
2022-10-08T03:40:17.681Z,2.60
2022-10-08T03:41:17.663Z,3.20
2022-10-08T03:42:17.648Z,2.10
2022-10-08T03:43:17.641Z,1.90
2022-10-08T03:44:17.654Z,2.60
2022-10-08T03:45:17.616Z,2.50
2022-10-08T03:46:17.684Z,3.40
2022-10-08T03:47:17.628Z,2.70
2022-10-08T03:48:17.585Z,2.30
2022-10-08T03:49:17.580Z,2.40
2022-10-08T03:50:17.564Z,2.80
2022-10-08T03:51:17.548Z,2.50
2022-10-08T03:52:17.538Z,2.00
2022-10-08T03:53:17.522Z,2.30
2022-10-08T03:54:17.537Z,2.30
2022-10-08T03:55:17.501Z,2.80
2022-10-08T03:56:17.489Z,2.50
2022-10-08T03:57:17.508Z,2.30
2022-10-08T03:58:17.472Z,2.50
2022-10-08T03:59:17.465Z,2.60
2022-10-08T04:00:17.446Z,2.90
2022-10-08T04:01:17.505Z,2.50
2022-10-08T04:02:17.469Z,2.50
2022-10-08T04:03:17.412Z,2.50
2022-10-08T04:04:20.653Z,2.50
2022-10-08T04:05:17.396Z,3.30
2022-10-08T04:06:17.399Z,2.50
2022-10-08T04:07:17.376Z,3.00
2022-10-08T04:08:17.357Z,2.30
2022-10-08T04:09:17.363Z,2.20
2022-10-08T04:10:17.345Z,2.80
2022-10-08T04:11:17.324Z,2.70
2022-10-08T04:12:17.324Z,3.00
2022-10-08T04:13:17.311Z,2.70
2022-10-08T04:14:17.327Z,2.90
2022-10-08T04:15:17.278Z,2.60
2022-10-08T04:16:17.352Z,2.40
2022-10-08T04:17:17.261Z,2.50
2022-10-08T04:18:17.247Z,2.90
2022-10-08T04:19:17.271Z,2.50
2022-10-08T04:20:17.222Z,3.20
2022-10-08T04:21:17.210Z,2.30
2022-10-08T04:22:17.199Z,2.70
2022-10-08T04:23:17.185Z,2.90
2022-10-08T04:24:17.209Z,2.80
2022-10-08T04:25:17.168Z,2.60
2022-10-08T04:26:17.154Z,2.20
2022-10-08T04:27:17.160Z,2.50
2022-10-08T04:28:17.184Z,2.10
2022-10-08T04:29:17.140Z,2.60
2022-10-08T04:30:17.120Z,2.40
2022-10-08T04:31:17.219Z,2.40
2022-10-08T04:32:17.091Z,2.40
2022-10-08T04:33:17.086Z,1.90
2022-10-08T04:34:17.090Z,2.90
2022-10-08T04:35:17.076Z,2.80
2022-10-08T04:36:17.058Z,2.90
2022-10-08T04:37:17.029Z,2.40
2022-10-08T04:38:17.030Z,2.20
2022-10-08T04:39:17.027Z,2.70
2022-10-08T04:40:17.001Z,2.60
2022-10-08T04:41:16.988Z,3.10
2022-10-08T04:42:16.980Z,2.60
2022-10-08T04:43:16.970Z,2.50
2022-10-08T04:44:16.968Z,2.30
2022-10-08T04:45:16.941Z,2.30
2022-10-08T04:46:17.017Z,2.50
2022-10-08T04:47:16.923Z,3.10
2022-10-08T04:48:16.912Z,2.70
2022-10-08T04:49:16.918Z,3.00
2022-10-08T04:50:16.894Z,2.70
2022-10-08T04:51:16.876Z,2.40
2022-10-08T04:52:16.863Z,2.60
2022-10-08T04:53:16.872Z,2.80
2022-10-08T04:54:16.858Z,2.40
2022-10-08T04:55:16.834Z,2.60
2022-10-08T04:56:16.824Z,2.60
2022-10-08T04:57:16.809Z,2.60
2022-10-08T04:58:16.796Z,2.40
2022-10-08T04:59:16.822Z,2.20
2022-10-08T05:00:19.118Z,3.10
2022-10-08T05:01:16.837Z,2.60
2022-10-08T05:02:16.771Z,2.20
2022-10-08T05:03:16.742Z,2.60
2022-10-08T05:04:16.745Z,2.90
2022-10-08T05:05:16.716Z,2.10
2022-10-08T05:06:16.718Z,2.80
2022-10-08T05:07:16.695Z,3.10
2022-10-08T05:08:16.693Z,3.70
2022-10-08T05:09:16.684Z,2.70
2022-10-08T05:10:16.678Z,2.30
2022-10-08T05:11:16.648Z,2.10
2022-10-08T05:12:16.648Z,2.10
2022-10-08T05:13:16.633Z,3.50
2022-10-08T05:14:16.644Z,2.90
2022-10-08T05:15:16.605Z,3.00
2022-10-08T05:16:16.688Z,3.10
2022-10-08T05:17:16.598Z,2.20
2022-10-08T05:18:16.574Z,2.60
2022-10-08T05:19:16.577Z,2.40
2022-10-08T05:20:16.548Z,2.30
2022-10-08T05:21:16.597Z,3.00
2022-10-08T05:22:16.528Z,2.50
2022-10-08T05:23:16.517Z,2.10
2022-10-08T05:24:16.537Z,2.80
2022-10-08T05:25:16.499Z,2.70
2022-10-08T05:26:16.489Z,2.50
2022-10-08T05:27:16.471Z,3.00
2022-10-08T05:28:16.507Z,2.90
2022-10-08T05:29:16.447Z,2.30
2022-10-08T05:30:21.082Z,2.80
2022-10-08T05:31:16.584Z,3.00
2022-10-08T05:32:16.415Z,2.80
2022-10-08T05:33:16.411Z,3.00
2022-10-08T05:34:16.416Z,2.50
2022-10-08T05:35:16.399Z,3.10
2022-10-08T05:36:16.405Z,2.40
2022-10-08T05:37:16.354Z,2.70
2022-10-08T05:38:16.535Z,2.00
2022-10-08T05:39:16.340Z,2.20
2022-10-08T05:40:16.348Z,3.20
2022-10-08T05:41:16.318Z,2.80
2022-10-08T05:42:16.325Z,2.50
2022-10-08T05:43:16.293Z,2.30
2022-10-08T05:44:16.281Z,2.90
2022-10-08T05:45:16.336Z,3.10
2022-10-08T05:46:16.286Z,2.80
2022-10-08T05:47:16.245Z,2.40
2022-10-08T05:48:16.241Z,2.60
2022-10-08T05:49:16.218Z,2.20
2022-10-08T05:50:16.232Z,2.70
2022-10-08T05:51:16.200Z,2.20
2022-10-08T05:52:16.200Z,2.50
2022-10-08T05:53:16.176Z,2.50
2022-10-08T05:54:16.175Z,2.30
2022-10-08T05:55:16.437Z,2.10
2022-10-08T05:56:16.277Z,2.90
2022-10-08T05:57:16.173Z,2.50
2022-10-08T05:58:16.132Z,2.40
2022-10-08T05:59:16.113Z,2.90
2022-10-08T06:00:16.122Z,3.00
2022-10-08T06:01:16.115Z,2.90
2022-10-08T06:02:16.085Z,2.30
2022-10-08T06:03:16.271Z,2.40
2022-10-08T06:04:16.090Z,3.70
2022-10-08T06:05:16.063Z,3.20
2022-10-08T06:06:16.065Z,2.40
2022-10-08T06:07:16.022Z,2.70
2022-10-08T06:08:16.017Z,2.30
2022-10-08T06:09:16.002Z,2.30
2022-10-08T06:10:16.055Z,2.50
2022-10-08T06:11:15.983Z,2.90
2022-10-08T06:12:16.002Z,2.40
2022-10-08T06:13:15.960Z,2.80
2022-10-08T06:14:15.946Z,2.60
2022-10-08T06:15:24.736Z,2.30
2022-10-08T06:16:15.975Z,2.30
2022-10-08T06:17:15.911Z,2.80
2022-10-08T06:18:15.921Z,2.40
2022-10-08T06:19:15.897Z,2.70
2022-10-08T06:20:15.906Z,2.30
2022-10-08T06:21:15.879Z,2.40
2022-10-08T06:22:15.889Z,2.70
2022-10-08T06:23:15.850Z,2.40
2022-10-08T06:24:15.852Z,2.10
2022-10-08T06:25:15.859Z,2.70
2022-10-08T06:26:15.825Z,2.50
2022-10-08T06:27:15.808Z,2.50
2022-10-08T06:28:15.847Z,2.30
2022-10-08T06:29:15.787Z,2.10
2022-10-08T06:30:15.803Z,2.40
2022-10-08T06:31:15.781Z,2.40
2022-10-08T06:32:15.762Z,2.40
2022-10-08T06:33:15.734Z,2.20
2022-10-08T06:34:15.725Z,2.50
2022-10-08T06:35:15.735Z,2.20
2022-10-08T06:36:15.709Z,2.50
2022-10-08T06:37:15.698Z,2.60
2022-10-08T06:38:15.679Z,2.40
2022-10-08T06:39:15.674Z,2.40
2022-10-08T06:40:15.681Z,2.30
2022-10-08T06:41:15.737Z,2.00
2022-10-08T06:42:16.656Z,2.50
2022-10-08T06:43:15.637Z,2.50
2022-10-08T06:44:15.629Z,2.10
2022-10-08T06:45:15.632Z,2.30
2022-10-08T06:46:15.648Z,2.00
2022-10-08T06:47:15.578Z,2.10
2022-10-08T06:48:15.579Z,2.20
2022-10-08T06:49:15.554Z,2.30
2022-10-08T06:50:15.569Z,2.70
2022-10-08T06:51:15.531Z,2.20
2022-10-08T06:52:15.533Z,2.80
2022-10-08T06:53:15.514Z,2.60
2022-10-08T06:54:15.495Z,2.70
2022-10-08T06:55:15.529Z,2.40
2022-10-08T06:56:15.477Z,2.30
2022-10-08T06:57:15.470Z,1.90
2022-10-08T06:58:15.463Z,2.20
2022-10-08T06:59:15.466Z,2.40
2022-10-08T07:00:15.459Z,2.20
2022-10-08T07:01:15.471Z,2.20
2022-10-08T07:02:15.611Z,2.30
2022-10-08T07:03:15.401Z,2.60
2022-10-08T07:04:15.454Z,2.60
2022-10-08T07:05:15.441Z,3.40
2022-10-08T07:06:15.389Z,2.70
2022-10-08T07:07:15.361Z,3.00
2022-10-08T07:08:15.440Z,2.40
2022-10-08T07:09:15.343Z,2.10
2022-10-08T07:10:18.338Z,2.70
2022-10-08T07:11:15.318Z,2.20
2022-10-08T07:12:15.351Z,2.40
2022-10-08T07:13:15.302Z,2.70
2022-10-08T07:14:15.291Z,2.40
2022-10-08T07:15:15.337Z,2.50
2022-10-08T07:16:20.384Z,2.40
2022-10-08T07:17:15.249Z,2.50
2022-10-08T07:18:15.250Z,2.20
2022-10-08T07:19:15.227Z,2.60
2022-10-08T07:20:15.229Z,2.80
2022-10-08T07:21:15.229Z,2.60
2022-10-08T07:22:15.234Z,2.60
2022-10-08T07:23:15.189Z,2.50
2022-10-08T07:24:15.223Z,2.20
2022-10-08T07:25:15.193Z,2.00
2022-10-08T07:26:15.149Z,2.50
2022-10-08T07:27:15.134Z,2.90
2022-10-08T07:28:15.180Z,2.40
2022-10-08T07:29:15.118Z,2.90
2022-10-08T07:30:15.140Z,2.60
2022-10-08T07:31:15.170Z,2.80
2022-10-08T07:32:15.089Z,2.40
2022-10-08T07:33:15.086Z,2.60
2022-10-08T07:34:15.085Z,2.50
2022-10-08T07:35:15.064Z,2.60
2022-10-08T07:36:15.057Z,2.90
2022-10-08T07:37:15.028Z,2.30
2022-10-08T07:38:15.036Z,2.30
2022-10-08T07:39:15.019Z,3.00
2022-10-08T07:40:15.032Z,3.70
2022-10-08T07:41:14.994Z,3.00
2022-10-08T07:42:14.967Z,2.90
2022-10-08T07:43:19.524Z,2.80
2022-10-08T07:44:14.950Z,2.70
2022-10-08T07:45:14.984Z,2.40
2022-10-08T07:46:15.055Z,2.40
2022-10-08T07:47:14.921Z,2.60
2022-10-08T07:48:14.936Z,2.90
2022-10-08T07:49:14.915Z,2.50
2022-10-08T07:50:14.913Z,2.20
2022-10-08T07:51:14.878Z,2.40
2022-10-08T07:52:14.887Z,2.20
2022-10-08T07:53:14.901Z,2.30
2022-10-08T07:54:14.846Z,2.40
2022-10-08T07:55:14.885Z,2.40
2022-10-08T07:56:14.811Z,2.70
2022-10-08T07:57:14.803Z,2.30
2022-10-08T07:58:14.820Z,2.40
2022-10-08T07:59:14.795Z,2.60
2022-10-08T08:00:14.785Z,3.00
2022-10-08T08:01:14.919Z,2.20
2022-10-08T08:02:14.785Z,2.10
2022-10-08T08:03:14.739Z,2.30
2022-10-08T08:04:14.755Z,2.70
2022-10-08T08:05:14.742Z,2.30
2022-10-08T08:06:14.716Z,2.50
2022-10-08T08:07:14.692Z,2.70
2022-10-08T08:08:14.694Z,2.40
2022-10-08T08:09:14.674Z,2.40
2022-10-08T08:10:14.679Z,1.90
2022-10-08T08:11:14.650Z,2.30
2022-10-08T08:12:14.644Z,2.20
2022-10-08T08:13:14.633Z,2.20
2022-10-08T08:14:14.625Z,2.50
2022-10-08T08:15:14.631Z,2.40
2022-10-08T08:16:14.639Z,2.40
2022-10-08T08:17:14.587Z,2.20
2022-10-08T08:18:14.572Z,2.60
2022-10-08T08:19:14.566Z,2.50
2022-10-08T08:20:14.572Z,1.70
2022-10-08T08:21:14.542Z,2.40
2022-10-08T08:22:14.519Z,2.10
2022-10-08T08:23:14.515Z,2.20
2022-10-08T08:24:14.507Z,2.50
2022-10-08T08:25:14.535Z,2.20
2022-10-08T08:26:14.500Z,2.40
2022-10-08T08:27:14.469Z,2.30
2022-10-08T08:28:14.500Z,2.00
2022-10-08T08:29:14.458Z,1.90
2022-10-08T08:30:14.465Z,2.40
2022-10-08T08:31:14.438Z,2.30
2022-10-08T08:32:14.504Z,1.90
2022-10-08T08:33:14.419Z,2.10
2022-10-08T08:34:14.420Z,1.70
2022-10-08T08:35:14.400Z,2.40
2022-10-08T08:36:14.395Z,2.40
2022-10-08T08:37:14.359Z,2.40
2022-10-08T08:38:14.348Z,2.00
2022-10-08T08:39:14.354Z,2.20
2022-10-08T08:40:14.365Z,2.70
2022-10-08T08:41:17.464Z,2.00
2022-10-08T08:42:14.319Z,1.90
2022-10-08T08:43:14.315Z,2.20
2022-10-08T08:44:14.292Z,1.90
2022-10-08T08:45:34.245Z,2.10
2022-10-08T08:46:14.287Z,1.90
2022-10-08T08:47:14.258Z,1.90
2022-10-08T08:48:14.253Z,2.10
2022-10-08T08:49:14.242Z,2.40
2022-10-08T08:50:14.252Z,2.40
2022-10-08T08:51:14.215Z,2.00
2022-10-08T08:52:14.197Z,2.30
2022-10-08T08:53:14.201Z,2.80
2022-10-08T08:54:14.190Z,1.80
2022-10-08T08:55:14.195Z,1.60
2022-10-08T08:56:14.157Z,2.00
2022-10-08T08:57:14.159Z,1.80
2022-10-08T08:58:14.140Z,1.60
2022-10-08T08:59:14.121Z,2.20
2022-10-08T09:00:14.130Z,1.90
2022-10-08T09:01:14.189Z,2.00
2022-10-08T09:02:14.089Z,2.40
2022-10-08T09:03:14.076Z,1.90
2022-10-08T09:04:14.078Z,1.50
2022-10-08T09:05:14.105Z,1.90
2022-10-08T09:06:14.046Z,1.80
2022-10-08T09:07:14.040Z,1.80
2022-10-08T09:08:14.069Z,1.70
2022-10-08T09:09:14.007Z,1.70
2022-10-08T09:10:14.021Z,1.70
2022-10-08T09:11:13.985Z,1.70
2022-10-08T09:12:16.495Z,1.60
2022-10-08T09:13:13.975Z,1.70
2022-10-08T09:14:13.966Z,1.40
2022-10-08T09:15:13.972Z,1.60
2022-10-08T09:16:14.024Z,2.00
2022-10-08T09:17:13.923Z,1.90
2022-10-08T09:18:13.932Z,1.70
2022-10-08T09:19:13.909Z,1.40
2022-10-08T09:20:13.918Z,1.60
2022-10-08T09:21:14.068Z,1.80
2022-10-08T09:22:13.868Z,1.90
2022-10-08T09:23:13.881Z,1.80
2022-10-08T09:24:13.896Z,1.90
2022-10-08T09:25:13.847Z,1.50
2022-10-08T09:26:13.846Z,1.60
2022-10-08T09:27:13.805Z,1.80
2022-10-08T09:28:13.869Z,1.40
2022-10-08T09:29:14.007Z,1.50
2022-10-08T09:30:13.801Z,1.50
2022-10-08T09:31:13.858Z,1.80
2022-10-08T09:32:13.751Z,1.70
2022-10-08T09:33:13.757Z,1.70
2022-10-08T09:34:13.735Z,1.90
2022-10-08T09:35:13.762Z,1.50
2022-10-08T09:36:13.711Z,1.70
2022-10-08T09:37:13.720Z,2.40
2022-10-08T09:38:14.778Z,1.60
2022-10-08T09:39:13.695Z,1.70
2022-10-08T09:40:13.692Z,1.20
2022-10-08T09:41:13.660Z,1.50
2022-10-08T09:42:13.639Z,1.50
2022-10-08T09:43:13.652Z,2.00
2022-10-08T09:44:13.641Z,1.20
2022-10-08T09:45:13.626Z,1.30
2022-10-08T09:46:13.656Z,1.40
2022-10-08T09:47:13.605Z,1.70
2022-10-08T09:48:13.582Z,1.40
2022-10-08T09:49:13.574Z,1.60
2022-10-08T09:50:13.585Z,1.20
2022-10-08T09:51:13.548Z,1.40
2022-10-08T09:52:17.127Z,1.50
2022-10-08T09:53:13.535Z,1.40
2022-10-08T09:54:13.520Z,1.80
2022-10-08T09:55:13.552Z,1.30
2022-10-08T09:56:13.508Z,1.50
2022-10-08T09:57:13.485Z,1.50
2022-10-08T09:58:13.479Z,1.50
2022-10-08T09:59:13.482Z,1.50
2022-10-08T10:00:13.475Z,1.70
2022-10-08T10:01:13.479Z,1.40
2022-10-08T10:02:13.429Z,1.10
2022-10-08T10:03:13.425Z,1.30
2022-10-08T10:04:13.446Z,1.50
2022-10-08T10:05:13.412Z,1.20
2022-10-08T10:06:15.808Z,1.90
2022-10-08T10:07:13.384Z,1.20
2022-10-08T10:08:13.372Z,1.20
2022-10-08T10:09:13.350Z,1.50
2022-10-08T10:10:13.353Z,1.90
2022-10-08T10:11:13.333Z,1.00
2022-10-08T10:12:13.326Z,1.00
2022-10-08T10:13:13.311Z,0.90
2022-10-08T10:14:13.304Z,1.10
2022-10-08T10:15:13.322Z,1.10
2022-10-08T10:16:13.296Z,1.00
2022-10-08T10:17:13.270Z,0.90
2022-10-08T10:18:13.262Z,1.10
2022-10-08T10:19:13.242Z,1.30
2022-10-08T10:20:13.254Z,1.60
2022-10-08T10:21:13.250Z,1.30
2022-10-08T10:22:13.225Z,1.20
2022-10-08T10:23:13.200Z,1.10
2022-10-08T10:24:13.203Z,1.40
2022-10-08T10:25:13.179Z,1.40
2022-10-08T10:26:13.208Z,1.70
2022-10-08T10:27:13.193Z,1.70
2022-10-08T10:28:13.235Z,1.60
2022-10-08T10:29:13.140Z,1.40
2022-10-08T10:30:13.154Z,0.90
2022-10-08T10:31:13.210Z,1.10
2022-10-08T10:32:14.746Z,1.70
2022-10-08T10:33:13.095Z,1.10
2022-10-08T10:34:13.090Z,1.00
2022-10-08T10:35:13.088Z,1.30
2022-10-08T10:36:13.092Z,0.90
2022-10-08T10:37:13.049Z,1.30
2022-10-08T10:38:13.046Z,0.90
2022-10-08T10:39:13.055Z,1.20
2022-10-08T10:40:13.015Z,1.00
2022-10-08T10:41:13.033Z,1.40
2022-10-08T10:42:13.007Z,1.30
2022-10-08T10:43:12.997Z,1.40
2022-10-08T10:44:12.977Z,1.30
2022-10-08T10:45:12.985Z,1.00
2022-10-08T10:46:13.046Z,1.10
2022-10-08T10:47:12.946Z,1.20
2022-10-08T10:48:12.950Z,1.00
2022-10-08T10:49:12.927Z,1.20
2022-10-08T10:50:12.919Z,1.30
2022-10-08T10:51:12.935Z,1.40
2022-10-08T10:52:12.892Z,1.20
2022-10-08T10:53:12.899Z,1.20
2022-10-08T10:54:12.879Z,1.30
2022-10-08T10:55:12.856Z,1.70
2022-10-08T10:56:12.882Z,1.60
2022-10-08T10:57:12.830Z,1.40
2022-10-08T10:58:12.822Z,1.40
2022-10-08T10:59:12.811Z,1.40
2022-10-08T11:00:12.809Z,1.30
2022-10-08T11:01:12.848Z,1.20
2022-10-08T11:02:12.808Z,1.40
2022-10-08T11:03:12.854Z,1.40
2022-10-08T11:04:12.754Z,1.40
2022-10-08T11:05:12.746Z,2.20
2022-10-08T11:06:12.759Z,1.40
2022-10-08T11:07:12.724Z,1.20
2022-10-08T11:08:12.728Z,1.20
2022-10-08T11:09:12.696Z,1.50
2022-10-08T11:10:12.700Z,1.30
2022-10-08T11:11:12.702Z,1.30
2022-10-08T11:12:12.679Z,1.30
2022-10-08T11:13:12.676Z,1.50
2022-10-08T11:14:12.748Z,1.20
2022-10-08T11:15:12.637Z,1.50
2022-10-08T11:16:12.679Z,1.60
2022-10-08T11:17:12.620Z,1.30
2022-10-08T11:18:12.612Z,1.10
2022-10-08T11:19:12.596Z,1.40
2022-10-08T11:20:12.634Z,1.40
2022-10-08T11:21:12.599Z,1.40
2022-10-08T11:22:12.591Z,1.30
2022-10-08T11:23:12.563Z,1.30
2022-10-08T11:24:12.549Z,1.50
2022-10-08T11:25:12.531Z,1.50
2022-10-08T11:26:22.380Z,1.40
2022-10-08T11:27:12.513Z,0.80
2022-10-08T11:28:12.546Z,1.30
2022-10-08T11:29:12.483Z,1.20
2022-10-08T11:30:12.479Z,1.20
2022-10-08T11:31:12.585Z,0.60
2022-10-08T11:32:12.460Z,0.70
2022-10-08T11:33:12.470Z,0.90
2022-10-08T11:34:12.529Z,0.70
2022-10-08T11:35:12.464Z,0.80
2022-10-08T11:36:12.419Z,0.90
2022-10-08T11:37:12.487Z,0.80
2022-10-08T11:38:12.382Z,0.70
2022-10-08T11:39:12.376Z,0.70
2022-10-08T11:40:12.401Z,0.70
2022-10-08T11:41:12.370Z,0.70
2022-10-08T11:42:12.348Z,0.60
2022-10-08T11:43:12.325Z,0.80
2022-10-08T11:44:12.333Z,0.70
2022-10-08T11:45:12.312Z,0.70
2022-10-08T11:46:12.370Z,0.70
2022-10-08T11:47:12.287Z,0.70
2022-10-08T11:48:12.273Z,0.40
2022-10-08T11:49:12.259Z,0.80
2022-10-08T11:50:12.252Z,0.70
2022-10-08T11:51:12.259Z,0.60
2022-10-08T11:52:12.227Z,0.70
2022-10-08T11:53:12.209Z,0.80
2022-10-08T11:54:12.204Z,0.50
2022-10-08T11:55:12.201Z,0.70
2022-10-08T11:56:12.213Z,0.50
2022-10-08T11:57:12.175Z,0.50
2022-10-08T11:58:12.177Z,0.60
2022-10-08T11:59:12.142Z,0.40
2022-10-08T12:00:12.148Z,0.60
2022-10-08T12:01:12.150Z,0.80
2022-10-08T12:02:12.213Z,0.60
2022-10-08T12:03:12.203Z,0.80
2022-10-08T12:04:12.103Z,0.60
2022-10-08T12:05:12.079Z,0.60
2022-10-08T12:06:12.089Z,0.80
2022-10-08T12:07:12.071Z,1.00
2022-10-08T12:08:12.059Z,0.50
2022-10-08T12:09:12.037Z,0.70
2022-10-08T12:10:12.035Z,0.50
2022-10-08T12:11:12.164Z,0.90
2022-10-08T12:12:12.012Z,0.60
2022-10-08T12:13:16.739Z,0.50
2022-10-08T12:14:11.994Z,0.70
2022-10-08T12:15:18.530Z,0.70
2022-10-08T12:16:12.026Z,0.60
2022-10-08T12:17:11.958Z,0.60
2022-10-08T12:18:11.941Z,0.70
2022-10-08T12:19:11.928Z,0.80
2022-10-08T12:20:11.932Z,0.70
2022-10-08T12:21:11.924Z,0.70
2022-10-08T12:22:11.893Z,0.70
2022-10-08T12:23:11.882Z,0.80
2022-10-08T12:24:11.874Z,0.50
2022-10-08T12:25:11.871Z,1.00
2022-10-08T12:26:11.875Z,1.00
2022-10-08T12:27:11.846Z,0.70
2022-10-08T12:28:11.896Z,0.70
2022-10-08T12:29:11.816Z,0.80
2022-10-08T12:30:11.809Z,0.80
2022-10-08T12:31:11.864Z,0.60
2022-10-08T12:32:11.799Z,0.70
2022-10-08T12:33:11.768Z,0.80
2022-10-08T12:34:11.756Z,0.90
2022-10-08T12:35:11.761Z,0.60
2022-10-08T12:36:11.761Z,0.80
2022-10-08T12:37:15.792Z,0.70
2022-10-08T12:38:11.736Z,0.50
2022-10-08T12:39:11.697Z,0.60
2022-10-08T12:40:11.721Z,0.90
2022-10-08T12:41:11.707Z,1.00
2022-10-08T12:42:11.683Z,0.90
2022-10-08T12:43:11.658Z,0.70
2022-10-08T12:44:11.680Z,0.70
2022-10-08T12:45:11.627Z,1.00
2022-10-08T12:46:11.691Z,0.60
2022-10-08T12:47:11.614Z,0.90
2022-10-08T12:48:11.614Z,0.80
2022-10-08T12:49:11.586Z,0.60
2022-10-08T12:50:11.659Z,0.80
2022-10-08T12:51:11.594Z,0.80
2022-10-08T12:52:11.555Z,0.90
2022-10-08T12:53:11.553Z,0.80
2022-10-08T12:54:11.539Z,1.00
2022-10-08T12:55:11.576Z,0.80
2022-10-08T12:56:11.651Z,0.80
2022-10-08T12:57:11.506Z,0.90
2022-10-08T12:58:11.509Z,0.80
2022-10-08T12:59:11.501Z,0.80
2022-10-08T13:00:11.600Z,0.90
2022-10-08T13:01:11.533Z,0.90
2022-10-08T13:02:11.490Z,1.00
2022-10-08T13:03:11.463Z,0.80
2022-10-08T13:04:11.425Z,0.90
2022-10-08T13:05:11.403Z,1.00
2022-10-08T13:06:11.417Z,0.60
2022-10-08T13:07:11.390Z,0.80
2022-10-08T13:08:11.391Z,1.00
2022-10-08T13:09:11.383Z,0.80
2022-10-08T13:10:11.359Z,1.10
2022-10-08T13:11:11.376Z,1.20
2022-10-08T13:12:11.324Z,1.20
2022-10-08T13:13:11.325Z,1.10
2022-10-08T13:14:11.318Z,1.10
2022-10-08T13:15:11.383Z,1.30
2022-10-08T13:16:11.326Z,1.10
2022-10-08T13:17:11.288Z,0.90
2022-10-08T13:18:11.264Z,1.10